createdAt,value
2023-04-27T00:00:52.179Z,97.20
2023-04-27T00:02:25.165Z,97.10
2023-04-27T00:03:59.932Z,97.10
2023-04-27T00:05:35.218Z,97.00
2023-04-27T00:07:08.295Z,97.00
2023-04-27T00:08:41.233Z,97.10
2023-04-27T00:10:14.114Z,97.10
2023-04-27T00:11:47.069Z,97.10
2023-04-27T00:13:20.040Z,97.10
2023-04-27T00:14:51.931Z,97.30
2023-04-27T00:16:24.928Z,97.50
2023-04-27T00:17:58.482Z,97.50
2023-04-27T00:19:33.731Z,97.50
2023-04-27T00:21:07.692Z,97.50
2023-04-27T00:22:40.967Z,97.40
2023-04-27T00:24:12.837Z,97.40
2023-04-27T00:25:45.781Z,97.40
2023-04-27T00:27:18.763Z,97.40
2023-04-27T00:28:51.724Z,97.40
2023-04-27T00:30:24.751Z,97.40
2023-04-27T00:31:56.696Z,97.40
2023-04-27T00:33:29.802Z,97.40
2023-04-27T00:35:04.208Z,97.40
2023-04-27T00:36:37.143Z,97.60
2023-04-27T00:38:10.185Z,97.60
2023-04-27T00:39:42.190Z,97.70
2023-04-27T00:41:15.143Z,97.80
2023-04-27T00:42:48.132Z,97.80
2023-04-27T00:44:24.255Z,97.90
2023-04-27T00:45:57.489Z,98.00
2023-04-27T00:47:31.583Z,98.20
2023-04-27T00:49:05.472Z,98.20
2023-04-27T00:50:40.630Z,98.30
2023-04-27T00:52:13.593Z,98.40
2023-04-27T00:53:46.605Z,98.60
2023-04-27T00:55:19.721Z,98.70
2023-04-27T00:56:53.119Z,98.70
2023-04-27T00:58:25.981Z,98.70
2023-04-27T01:00:01.050Z,98.70
2023-04-27T01:01:34.281Z,98.70
2023-04-27T01:03:08.233Z,98.80
2023-04-27T01:04:42.071Z,98.90
2023-04-27T01:06:16.424Z,98.90
2023-04-27T01:07:49.364Z,98.90
2023-04-27T01:09:22.399Z,99.00
2023-04-27T01:10:55.281Z,99.20
2023-04-27T01:12:28.181Z,99.20
2023-04-27T01:14:06.005Z,99.00
2023-04-27T01:15:38.957Z,98.80
2023-04-27T01:17:12.011Z,98.50
2023-04-27T01:18:45.555Z,98.30
2023-04-27T01:20:20.307Z,98.10
2023-04-27T01:21:54.567Z,98.00
2023-04-27T01:23:28.851Z,98.00
2023-04-27T01:25:01.776Z,98.00
2023-04-27T01:26:34.852Z,98.10
2023-04-27T01:28:07.758Z,98.30
2023-04-27T01:29:41.195Z,98.50
2023-04-27T01:31:14.947Z,98.70
2023-04-27T01:32:48.009Z,98.90
2023-04-27T01:34:21.037Z,99.10
2023-04-27T01:35:53.967Z,99.10
2023-04-27T01:37:27.808Z,98.80
2023-04-27T01:39:02.053Z,99.00
2023-04-27T01:40:34.033Z,98.50
2023-04-27T01:42:07.147Z,98.70
2023-04-27T01:43:39.033Z,98.60
2023-04-27T01:45:13.059Z,98.60
2023-04-27T01:46:45.096Z,98.70
2023-04-27T01:48:18.128Z,98.60
2023-04-27T01:49:51.128Z,98.70
2023-04-27T01:51:24.046Z,98.70
2023-04-27T01:52:56.940Z,98.80
2023-04-27T01:54:31.214Z,98.70
2023-04-27T01:56:04.585Z,98.70
2023-04-27T01:57:37.386Z,98.80
2023-04-27T01:59:10.286Z,98.80
2023-04-27T02:00:42.195Z,98.80
2023-04-27T02:02:15.157Z,98.90
2023-04-27T02:03:48.307Z,99.00
2023-04-27T02:05:21.357Z,99.20
2023-04-27T02:06:54.268Z,99.10
2023-04-27T02:08:27.244Z,99.00
2023-04-27T02:10:01.546Z,99.00
2023-04-27T02:11:34.583Z,99.30
2023-04-27T02:13:06.595Z,99.40
2023-04-27T02:14:39.592Z,99.40
2023-04-27T02:16:12.536Z,99.30
2023-04-27T02:17:45.519Z,99.40
2023-04-27T02:19:18.449Z,99.50
2023-04-27T02:20:51.398Z,99.60
2023-04-27T02:22:23.477Z,99.60
2023-04-27T02:23:56.484Z,99.70
2023-04-27T02:25:30.816Z,99.70
2023-04-27T02:27:03.868Z,99.70
2023-04-27T02:28:38.387Z,99.70
2023-04-27T02:30:13.412Z,99.70
2023-04-27T02:31:46.921Z,99.70
2023-04-27T02:33:19.937Z,99.60
2023-04-27T02:34:52.867Z,99.50
2023-04-27T02:36:25.827Z,99.50
2023-04-27T02:37:57.784Z,99.60
2023-04-27T02:39:30.676Z,99.70
2023-04-27T02:41:05.006Z,99.70
2023-04-27T02:42:38.777Z,99.90
2023-04-27T02:44:10.785Z,99.90
2023-04-27T02:45:43.743Z,99.90
2023-04-27T02:47:16.712Z,99.90
2023-04-27T02:48:49.807Z,99.90
2023-04-27T02:50:22.752Z,99.90
2023-04-27T02:51:55.714Z,99.90
2023-04-27T02:53:28.681Z,99.90
2023-04-27T02:55:01.636Z,99.90
2023-04-27T02:56:35.965Z,99.90
2023-04-27T02:58:08.902Z,99.90
2023-04-27T02:59:41.934Z,99.90
2023-04-27T03:01:17.248Z,99.90
2023-04-27T03:02:50.357Z,99.90
2023-04-27T03:04:23.725Z,99.90
2023-04-27T03:05:55.564Z,99.90
2023-04-27T03:07:28.844Z,99.90
2023-04-27T03:09:03.605Z,99.90
2023-04-27T03:10:35.548Z,99.90
2023-04-27T03:12:09.883Z,99.90
2023-04-27T03:13:42.848Z,99.90
2023-04-27T03:15:15.840Z,99.90
2023-04-27T03:16:48.815Z,99.90
2023-04-27T03:18:21.190Z,99.90
2023-04-27T03:19:54.322Z,99.90
2023-04-27T03:21:28.558Z,99.90
2023-04-27T03:23:01.474Z,99.90
2023-04-27T03:24:34.466Z,99.90
2023-04-27T03:26:08.501Z,99.90
2023-04-27T03:27:43.456Z,99.90
2023-04-27T03:29:16.391Z,99.90
2023-04-27T03:30:49.343Z,99.90
2023-04-27T03:32:22.531Z,99.90
2023-04-27T03:33:55.598Z,99.90
2023-04-27T03:35:28.681Z,99.90
2023-04-27T03:37:01.637Z,99.90
2023-04-27T03:38:36.486Z,99.90
2023-04-27T03:40:09.681Z,99.90
2023-04-27T03:41:42.562Z,99.90
2023-04-27T03:43:16.068Z,99.90
2023-04-27T03:44:49.012Z,99.90
2023-04-27T03:46:22.097Z,99.90
2023-04-27T03:47:55.098Z,99.90
2023-04-27T03:49:28.125Z,99.90
2023-04-27T03:51:01.807Z,99.90
2023-04-27T03:52:34.730Z,99.90
2023-04-27T03:54:07.652Z,99.90
2023-04-27T03:55:41.149Z,99.90
2023-04-27T03:57:14.103Z,99.90
2023-04-27T03:58:48.374Z,99.90
2023-04-27T04:00:21.706Z,99.90
2023-04-27T04:01:54.617Z,99.90
2023-04-27T04:03:27.808Z,99.90
2023-04-27T04:05:01.165Z,99.90
2023-04-27T04:06:34.179Z,99.90
2023-04-27T04:08:07.089Z,99.90
2023-04-27T04:09:40.005Z,99.90
2023-04-27T04:11:11.979Z,99.90
2023-04-27T04:12:44.832Z,99.90
2023-04-27T04:14:19.107Z,99.90
2023-04-27T04:15:52.161Z,99.90
2023-04-27T04:17:25.145Z,99.90
2023-04-27T04:18:58.224Z,99.90
2023-04-27T04:20:31.151Z,99.90
2023-04-27T04:22:04.064Z,99.90
2023-04-27T04:23:37.552Z,99.90
2023-04-27T04:25:09.941Z,99.90
2023-04-27T04:26:42.847Z,99.90
2023-04-27T04:28:16.208Z,99.90
2023-04-27T04:29:50.301Z,99.90
2023-04-27T04:31:23.423Z,99.90
2023-04-27T04:32:55.464Z,99.90
2023-04-27T04:34:29.216Z,99.90
2023-04-27T04:36:04.965Z,99.90
2023-04-27T04:37:37.857Z,99.90
2023-04-27T04:39:12.643Z,99.90
2023-04-27T04:40:46.143Z,99.90
2023-04-27T04:42:18.939Z,99.90
2023-04-27T04:43:51.870Z,99.90
2023-04-27T04:45:26.102Z,99.90
2023-04-27T04:46:58.935Z,99.90
2023-04-27T04:48:32.347Z,99.90
2023-04-27T04:50:05.369Z,99.90
2023-04-27T04:51:38.094Z,99.90
2023-04-27T04:53:10.856Z,99.90
2023-04-27T04:54:43.536Z,99.90
2023-04-27T04:56:16.942Z,99.90
2023-04-27T04:57:49.699Z,99.90
2023-04-27T04:59:23.251Z,99.90
2023-04-27T05:00:57.798Z,99.90
2023-04-27T05:02:30.732Z,99.90
2023-04-27T05:04:03.726Z,99.90
2023-04-27T05:05:36.729Z,99.90
2023-04-27T05:07:14.572Z,99.90
2023-04-27T05:08:47.852Z,99.90
2023-04-27T05:10:20.632Z,99.90
2023-04-27T05:11:56.115Z,99.90
2023-04-27T05:13:29.752Z,99.90
2023-04-27T05:15:02.594Z,99.90
2023-04-27T05:16:37.095Z,99.90
2023-04-27T05:18:10.342Z,99.90
2023-04-27T05:19:45.558Z,99.90
2023-04-27T05:21:20.866Z,99.90
2023-04-27T05:22:53.568Z,99.90
2023-04-27T05:24:26.399Z,99.90
2023-04-27T05:25:59.197Z,99.90
2023-04-27T05:27:31.897Z,99.90
2023-04-27T05:29:04.653Z,99.90
2023-04-27T05:30:37.738Z,99.90
2023-04-27T05:32:11.843Z,99.90
2023-04-27T05:33:44.654Z,99.90
2023-04-27T05:35:17.488Z,99.90
2023-04-27T05:36:50.229Z,99.90
2023-04-27T05:38:23.372Z,99.90
2023-04-27T05:39:56.029Z,99.90
2023-04-27T05:41:30.728Z,99.90
2023-04-27T05:43:05.782Z,99.90
2023-04-27T05:44:38.639Z,99.70
2023-04-27T05:46:14.381Z,99.60
2023-04-27T05:47:48.641Z,99.40
2023-04-27T05:49:21.641Z,99.30
2023-04-27T05:50:59.932Z,99.20
2023-04-27T05:52:32.934Z,98.90
2023-04-27T05:54:05.868Z,98.70
2023-04-27T05:55:42.352Z,98.70
2023-04-27T05:57:15.261Z,98.50
2023-04-27T05:58:48.522Z,98.30
2023-04-27T06:00:22.538Z,97.70
2023-04-27T06:01:58.576Z,97.50
2023-04-27T06:03:33.252Z,97.20
2023-04-27T06:05:06.992Z,96.70
2023-04-27T06:06:39.845Z,96.30
2023-04-27T06:08:13.169Z,96.20
2023-04-27T06:09:45.960Z,96.10
2023-04-27T06:11:18.936Z,96.10
2023-04-27T06:12:54.813Z,96.00
2023-04-27T06:14:27.549Z,95.60
2023-04-27T06:16:00.515Z,95.60
2023-04-27T06:17:33.359Z,95.40
2023-04-27T06:19:07.606Z,95.20
2023-04-27T06:20:43.234Z,94.80
2023-04-27T06:22:16.193Z,94.60
2023-04-27T06:23:52.145Z,94.00
2023-04-27T06:25:27.201Z,93.70
2023-04-27T06:27:00.326Z,93.30
2023-04-27T06:28:33.898Z,93.10
2023-04-27T06:30:07.788Z,92.80
2023-04-27T06:31:40.582Z,92.50
2023-04-27T06:33:13.328Z,92.30
2023-04-27T06:34:49.000Z,92.10
2023-04-27T06:36:22.355Z,92.10
2023-04-27T06:37:58.602Z,92.00
2023-04-27T06:39:32.053Z,91.90
2023-04-27T06:41:04.965Z,91.70
2023-04-27T06:42:38.255Z,91.80
2023-04-27T06:44:10.927Z,91.50
2023-04-27T06:45:43.728Z,91.40
2023-04-27T06:47:19.582Z,91.30
2023-04-27T06:48:53.778Z,91.10
2023-04-27T06:50:31.117Z,91.00
2023-04-27T06:52:04.030Z,91.00
2023-04-27T06:53:36.830Z,90.90
2023-04-27T06:55:10.995Z,90.90
2023-04-27T06:56:44.661Z,90.80
2023-04-27T06:58:17.643Z,90.70
2023-04-27T06:59:50.453Z,90.40
2023-04-27T07:01:23.187Z,90.40
2023-04-27T07:02:56.004Z,90.30
2023-04-27T07:04:29.146Z,90.30
2023-04-27T07:06:03.376Z,90.10
2023-04-27T07:07:36.130Z,89.40
2023-04-27T07:09:19.925Z,88.60
2023-04-27T07:10:59.248Z,88.20
2023-04-27T07:12:32.041Z,87.50
2023-04-27T07:14:04.773Z,87.20
2023-04-27T07:15:37.585Z,87.10
2023-04-27T07:17:10.565Z,87.10
2023-04-27T07:18:43.653Z,86.30
2023-04-27T07:20:17.307Z,86.50
2023-04-27T07:21:51.844Z,86.10
2023-04-27T07:23:24.807Z,86.20
2023-04-27T07:24:57.550Z,85.70
2023-04-27T07:26:31.878Z,85.00
2023-04-27T07:28:04.692Z,84.40
2023-04-27T07:29:37.926Z,84.10
2023-04-27T07:31:10.828Z,83.60
2023-04-27T07:32:44.369Z,82.80
2023-04-27T07:34:17.424Z,82.60
2023-04-27T07:35:50.328Z,82.60
2023-04-27T07:37:24.586Z,82.40
2023-04-27T07:38:58.641Z,81.90
2023-04-27T07:40:32.807Z,81.80
2023-04-27T07:42:05.794Z,81.60
2023-04-27T07:43:38.732Z,80.90
2023-04-27T07:45:11.645Z,80.90
2023-04-27T07:46:44.435Z,80.40
2023-04-27T07:48:17.197Z,80.00
2023-04-27T07:49:50.174Z,80.20
2023-04-27T07:51:22.919Z,80.00
2023-04-27T07:52:57.400Z,79.80
2023-04-27T07:54:30.184Z,79.80
2023-04-27T07:56:03.977Z,78.50
2023-04-27T07:57:36.740Z,78.20
2023-04-27T07:59:09.488Z,78.00
2023-04-27T08:00:42.217Z,78.20
2023-04-27T08:02:18.966Z,78.40
2023-04-27T08:03:52.883Z,78.10
2023-04-27T08:05:26.097Z,78.50
2023-04-27T08:06:59.793Z,77.70
2023-04-27T08:08:34.456Z,77.20
2023-04-27T08:10:08.179Z,76.70
2023-04-27T08:11:40.910Z,76.80
2023-04-27T08:13:13.674Z,76.70
2023-04-27T08:14:46.584Z,76.40
2023-04-27T08:16:19.456Z,76.30
2023-04-27T08:17:52.302Z,76.80
2023-04-27T08:19:25.057Z,76.80
2023-04-27T08:20:57.818Z,76.90
2023-04-27T08:22:30.550Z,77.60
2023-04-27T08:24:06.068Z,77.60
2023-04-27T08:25:38.797Z,77.20
2023-04-27T08:27:11.531Z,77.40
2023-04-27T08:28:44.314Z,77.80
2023-04-27T08:30:17.161Z,77.20
2023-04-27T08:31:49.985Z,77.50
2023-04-27T08:33:22.865Z,77.10
2023-04-27T08:34:55.610Z,77.50
2023-04-27T08:36:28.957Z,77.00
2023-04-27T08:38:01.680Z,77.90
2023-04-27T08:39:35.815Z,77.60
2023-04-27T08:42:54.753Z,78.60
2023-04-27T08:44:27.608Z,78.80
2023-04-27T08:46:00.494Z,78.80
2023-04-27T08:47:42.767Z,78.80
2023-04-27T08:49:17.396Z,79.00
2023-04-27T08:50:51.592Z,78.90
2023-04-27T08:52:24.359Z,79.10
2023-04-27T08:53:57.720Z,79.30
2023-04-27T08:55:31.894Z,79.40
2023-04-27T08:57:09.593Z,79.40
2023-04-27T08:58:42.375Z,79.60
2023-04-27T09:00:15.683Z,79.50
2023-04-27T09:01:49.496Z,79.30
2023-04-27T09:03:26.698Z,79.70
2023-04-27T09:04:59.762Z,80.00
2023-04-27T09:06:33.062Z,80.10
2023-04-27T09:08:08.207Z,78.80
2023-04-27T09:09:41.103Z,79.20
2023-04-27T09:11:15.722Z,79.00
2023-04-27T09:12:55.544Z,78.60
2023-04-27T09:14:28.360Z,79.30
2023-04-27T09:16:01.114Z,79.60
2023-04-27T09:17:34.563Z,79.80
2023-04-27T09:19:07.407Z,78.10
2023-04-27T09:20:43.582Z,78.00
2023-04-27T09:22:16.306Z,77.60
2023-04-27T09:23:49.042Z,77.70
2023-04-27T09:25:28.399Z,77.30
2023-04-27T09:27:03.159Z,77.60
2023-04-27T09:28:36.623Z,77.50
2023-04-27T09:30:16.158Z,77.60
2023-04-27T09:31:48.942Z,77.60
2023-04-27T09:33:25.103Z,77.70
2023-04-27T09:34:57.834Z,76.30
2023-04-27T09:36:32.230Z,75.90
2023-04-27T09:38:05.069Z,75.50
2023-04-27T09:39:37.893Z,75.20
2023-04-27T09:41:11.254Z,75.30
2023-04-27T09:42:45.526Z,74.70
2023-04-27T09:44:18.404Z,74.20
2023-04-27T09:45:51.320Z,73.80
2023-04-27T09:47:24.623Z,73.50
2023-04-27T09:48:57.526Z,74.00
2023-04-27T09:50:30.324Z,74.00
2023-04-27T09:52:03.273Z,74.20
2023-04-27T09:53:38.233Z,74.50
2023-04-27T09:55:12.103Z,75.00
2023-04-27T09:56:51.124Z,74.80
2023-04-27T09:58:42.535Z,74.50
2023-04-27T10:00:21.656Z,75.30
2023-04-27T10:01:56.513Z,74.70
2023-04-27T10:03:32.782Z,74.60
2023-04-27T10:05:22.848Z,74.70
2023-04-27T10:07:02.917Z,74.40
2023-04-27T10:08:35.810Z,74.10
2023-04-27T10:10:17.069Z,73.70
2023-04-27T10:11:51.079Z,74.40
2023-04-27T10:13:24.464Z,73.80
2023-04-27T10:14:59.530Z,72.90
2023-04-27T10:16:40.514Z,71.90
2023-04-27T10:18:13.388Z,70.90
2023-04-27T10:19:58.218Z,71.30
2023-04-27T10:21:32.852Z,70.40
2023-04-27T10:23:06.349Z,70.80
2023-04-27T10:24:40.715Z,71.20
2023-04-27T10:26:13.517Z,70.10
2023-04-27T10:27:49.850Z,70.00
2023-04-27T10:29:22.568Z,69.70
2023-04-27T10:30:56.789Z,69.50
2023-04-27T10:32:30.107Z,69.70
2023-04-27T10:34:09.523Z,69.30
2023-04-27T10:35:43.311Z,69.20
2023-04-27T10:37:16.660Z,69.00
2023-04-27T10:38:57.056Z,68.80
2023-04-27T10:40:33.751Z,69.30
2023-04-27T10:42:06.930Z,69.60
2023-04-27T10:43:40.584Z,68.60
2023-04-27T10:45:13.866Z,69.30
2023-04-27T10:46:54.517Z,69.90
2023-04-27T10:48:27.354Z,69.80
2023-04-27T10:50:01.406Z,70.20
2023-04-27T10:51:34.443Z,70.20
2023-04-27T10:53:08.096Z,69.80
2023-04-27T10:54:46.884Z,69.20
2023-04-27T10:56:20.056Z,69.10
2023-04-27T10:57:53.602Z,69.30
2023-04-27T10:59:26.411Z,68.90
2023-04-27T11:00:59.135Z,69.20
2023-04-27T11:02:33.371Z,69.00
2023-04-27T11:04:06.499Z,69.10
2023-04-27T11:05:39.324Z,69.30
2023-04-27T11:07:12.331Z,69.10
2023-04-27T11:08:45.492Z,68.70
2023-04-27T11:10:18.630Z,69.20
2023-04-27T11:11:51.419Z,69.60
2023-04-27T11:13:25.786Z,70.00
2023-04-27T11:14:59.161Z,70.50
2023-04-27T11:16:32.931Z,70.80
2023-04-27T11:18:07.612Z,70.60
2023-04-27T11:19:47.705Z,70.40
2023-04-27T11:21:22.047Z,70.30
2023-04-27T11:22:55.009Z,70.70
2023-04-27T11:24:28.196Z,69.50
2023-04-27T11:26:09.903Z,69.30
2023-04-27T11:27:42.829Z,69.80
2023-04-27T11:29:16.323Z,69.50
2023-04-27T11:30:56.800Z,69.10
2023-04-27T11:32:29.648Z,69.40
2023-04-27T11:34:04.038Z,69.60
2023-04-27T11:35:36.914Z,69.90
2023-04-27T11:38:45.553Z,69.70
2023-04-27T11:40:19.162Z,69.50
2023-04-27T11:41:52.060Z,70.50
2023-04-27T11:43:26.638Z,70.80
2023-04-27T11:44:59.987Z,69.70
2023-04-27T11:46:32.759Z,70.40
2023-04-27T11:48:05.643Z,70.90
2023-04-27T11:49:39.869Z,70.90
2023-04-27T11:51:13.311Z,70.70
2023-04-27T11:52:49.389Z,71.00
2023-04-27T11:54:29.278Z,71.00
2023-04-27T11:56:02.598Z,71.40
2023-04-27T11:57:36.483Z,72.00
2023-04-27T11:59:19.387Z,72.30
2023-04-27T12:00:52.131Z,72.50
2023-04-27T12:02:25.353Z,72.20
2023-04-27T12:04:00.742Z,72.20
2023-04-27T12:05:36.571Z,71.80
2023-04-27T12:07:09.721Z,70.90
2023-04-27T12:08:42.501Z,71.00
2023-04-27T12:10:15.682Z,71.70
2023-04-27T12:11:48.468Z,72.00
2023-04-27T12:13:21.306Z,72.30
2023-04-27T12:14:54.067Z,71.50
2023-04-27T12:16:27.051Z,71.30
2023-04-27T12:17:59.877Z,71.40
2023-04-27T12:19:32.818Z,71.40
2023-04-27T12:21:08.509Z,71.10
2023-04-27T12:22:41.999Z,71.30
2023-04-27T12:24:14.923Z,71.20
2023-04-27T12:25:48.369Z,70.60
2023-04-27T12:27:21.125Z,70.00
2023-04-27T12:28:53.896Z,69.70
2023-04-27T12:30:27.263Z,69.50
2023-04-27T12:32:00.367Z,69.50
2023-04-27T12:33:33.340Z,68.80
2023-04-27T12:35:06.396Z,69.10
2023-04-27T12:36:41.215Z,70.00
2023-04-27T12:38:13.944Z,69.20
2023-04-27T12:39:47.127Z,69.30
2023-04-27T12:41:19.875Z,69.20
2023-04-27T12:42:52.760Z,68.40
2023-04-27T12:44:25.538Z,68.60
2023-04-27T12:45:58.327Z,67.70
2023-04-27T12:47:54.065Z,68.00
2023-04-27T12:49:24.821Z,68.60
2023-04-27T12:50:57.844Z,68.70
2023-04-27T12:52:31.907Z,69.40
2023-04-27T12:54:05.092Z,69.10
2023-04-27T12:55:38.208Z,69.60
2023-04-27T12:57:10.922Z,69.70
2023-04-27T12:58:43.659Z,69.80
2023-04-27T13:00:17.281Z,70.40
2023-04-27T13:01:50.194Z,69.80
2023-04-27T13:03:23.064Z,68.90
2023-04-27T13:04:56.067Z,68.80
2023-04-27T13:06:29.448Z,68.70
2023-04-27T13:08:03.544Z,68.40
2023-04-27T13:09:36.415Z,68.30
2023-04-27T13:11:09.362Z,68.70
2023-04-27T13:12:42.113Z,68.90
2023-04-27T13:14:15.099Z,67.70
2023-04-27T13:15:48.060Z,67.70
2023-04-27T13:17:20.987Z,68.00
2023-04-27T13:18:55.489Z,68.00
2023-04-27T13:20:28.426Z,68.50
2023-04-27T13:22:01.241Z,68.50
2023-04-27T13:23:35.633Z,67.90
2023-04-27T13:25:09.595Z,68.30
2023-04-27T13:26:42.312Z,68.30
2023-04-27T13:28:15.340Z,67.70
2023-04-27T13:29:49.621Z,67.90
2023-04-27T13:31:22.396Z,67.20
2023-04-27T13:32:59.721Z,67.30
2023-04-27T13:34:37.301Z,67.20
2023-04-27T13:36:10.468Z,66.80
2023-04-27T13:37:43.191Z,67.20
2023-04-27T13:39:17.808Z,67.70
2023-04-27T13:40:50.645Z,67.40
2023-04-27T13:42:29.015Z,66.90
2023-04-27T13:44:01.889Z,66.50
2023-04-27T13:45:34.715Z,66.80
2023-04-27T13:47:08.073Z,67.40
2023-04-27T13:48:40.972Z,66.90
2023-04-27T13:50:14.190Z,67.50
2023-04-27T13:51:46.976Z,66.60
2023-04-27T13:53:19.895Z,67.40
2023-04-27T13:54:54.013Z,66.70
2023-04-27T13:56:26.737Z,66.80
2023-04-27T13:57:59.514Z,67.20
2023-04-27T13:59:32.291Z,66.70
2023-04-27T14:01:05.249Z,66.90
2023-04-27T14:02:38.431Z,66.70
2023-04-27T14:04:11.544Z,66.00
2023-04-27T14:05:44.814Z,66.00
2023-04-27T14:09:02.286Z,65.70
2023-04-27T14:10:36.825Z,66.00
2023-04-27T14:12:10.761Z,65.70
2023-04-27T14:13:43.988Z,65.90
2023-04-27T14:15:19.392Z,65.30
2023-04-27T14:16:52.132Z,64.90
2023-04-27T14:18:32.276Z,64.40
2023-04-27T14:20:08.385Z,63.50
2023-04-27T14:21:41.141Z,64.10
2023-04-27T14:23:13.887Z,64.10
2023-04-27T14:24:46.601Z,64.20
2023-04-27T14:26:20.679Z,64.50
2023-04-27T14:27:53.757Z,63.90
2023-04-27T14:29:26.657Z,64.90
2023-04-27T14:31:02.069Z,64.20
2023-04-27T14:32:35.393Z,65.30
2023-04-27T14:34:09.156Z,64.90
2023-04-27T14:35:41.899Z,64.70
2023-04-27T14:37:14.704Z,65.10
2023-04-27T14:38:47.470Z,65.90
2023-04-27T14:40:20.645Z,65.50
2023-04-27T14:41:54.779Z,65.00
2023-04-27T14:43:27.642Z,65.30
2023-04-27T14:45:00.418Z,64.90
2023-04-27T14:46:33.232Z,64.70
2023-04-27T14:48:06.386Z,64.50
2023-04-27T14:49:39.318Z,64.50
2023-04-27T14:51:12.080Z,64.50
2023-04-27T14:52:45.121Z,64.50
2023-04-27T14:54:17.948Z,64.60
2023-04-27T14:55:50.796Z,64.70
2023-04-27T14:57:24.971Z,65.20
2023-04-27T14:58:57.752Z,65.60
2023-04-27T15:00:31.209Z,65.70
2023-04-27T15:02:04.852Z,65.70
2023-04-27T15:03:38.557Z,65.60
2023-04-27T15:05:11.445Z,65.80
2023-04-27T15:06:44.187Z,66.10
2023-04-27T15:08:17.135Z,66.40
2023-04-27T15:09:51.295Z,66.50
2023-04-27T15:11:24.231Z,66.10
2023-04-27T15:12:58.279Z,65.70
2023-04-27T15:14:31.283Z,66.00
2023-04-27T15:16:05.068Z,65.40
2023-04-27T15:17:37.926Z,65.20
2023-04-27T15:19:10.956Z,65.50
2023-04-27T15:20:44.679Z,65.50
2023-04-27T15:22:17.509Z,65.40
2023-04-27T15:23:50.324Z,65.60
2023-04-27T15:25:23.134Z,65.70
2023-04-27T15:26:55.960Z,65.80
2023-04-27T15:28:30.293Z,65.80
2023-04-27T15:30:04.091Z,65.60
2023-04-27T15:31:37.130Z,65.60
2023-04-27T15:33:10.459Z,66.10
2023-04-27T15:34:44.535Z,65.90
2023-04-27T15:36:17.490Z,66.10
2023-04-27T15:37:50.277Z,65.90
2023-04-27T15:39:23.197Z,65.80
2023-04-27T15:40:56.050Z,66.00
2023-04-27T15:42:29.631Z,66.00
2023-04-27T15:44:03.741Z,66.30
2023-04-27T15:45:36.561Z,66.10
2023-04-27T15:47:09.377Z,66.30
2023-04-27T15:48:42.131Z,66.30
2023-04-27T15:50:14.945Z,66.80
2023-04-27T15:51:47.711Z,67.00
2023-04-27T15:53:20.435Z,67.00
2023-04-27T15:54:53.143Z,66.70
2023-04-27T15:56:29.898Z,66.70
2023-04-27T15:58:03.483Z,66.50
2023-04-27T15:59:37.614Z,66.70
2023-04-27T16:01:10.539Z,66.70
2023-04-27T16:02:43.593Z,66.40
2023-04-27T16:04:16.622Z,66.50
2023-04-27T16:05:50.469Z,65.60
2023-04-27T16:07:23.217Z,65.80
2023-04-27T16:08:55.964Z,65.90
2023-04-27T16:10:28.861Z,66.10
2023-04-27T16:12:01.859Z,66.30
2023-04-27T16:13:34.648Z,66.60
2023-04-27T16:15:11.234Z,67.10
2023-04-27T16:16:46.089Z,67.40
2023-04-27T16:18:18.893Z,67.60
2023-04-27T16:19:51.633Z,67.50
2023-04-27T16:21:24.367Z,67.70
2023-04-27T16:22:57.118Z,67.70
2023-04-27T16:24:30.452Z,67.30
2023-04-27T16:26:03.197Z,67.40
2023-04-27T16:27:35.948Z,67.40
2023-04-27T16:29:08.710Z,67.70
2023-04-27T16:30:42.741Z,67.70
2023-04-27T16:32:17.265Z,67.60
2023-04-27T16:33:50.070Z,67.80
2023-04-27T16:35:23.178Z,67.80
2023-04-27T16:36:55.971Z,68.00
2023-04-27T16:38:28.729Z,67.90
2023-04-27T16:40:06.168Z,68.50
2023-04-27T16:41:39.052Z,68.80
2023-04-27T16:43:11.876Z,68.80
2023-04-27T16:44:44.671Z,68.80
2023-04-27T16:46:18.936Z,69.20
2023-04-27T16:47:51.837Z,69.40
2023-04-27T16:49:24.647Z,70.00
2023-04-27T16:50:57.483Z,70.00
2023-04-27T16:52:30.299Z,69.60
2023-04-27T16:54:03.590Z,69.20
2023-04-27T16:55:36.690Z,69.50
2023-04-27T16:57:09.607Z,69.50
2023-04-27T16:58:42.359Z,69.60
2023-04-27T17:00:15.781Z,69.70
2023-04-27T17:01:50.006Z,69.50
2023-04-27T17:03:23.060Z,69.50
2023-04-27T17:04:55.977Z,69.60
2023-04-27T17:06:29.933Z,69.60
2023-04-27T17:08:05.185Z,69.70
2023-04-27T17:09:38.592Z,69.50
2023-04-27T17:11:11.812Z,69.40
2023-04-27T17:12:44.541Z,69.30
2023-04-27T17:14:17.342Z,69.30
2023-04-27T17:15:50.923Z,69.20
2023-04-27T17:17:24.087Z,68.90
2023-04-27T17:18:57.217Z,69.10
2023-04-27T17:20:30.054Z,69.10
2023-04-27T17:22:02.855Z,69.00
2023-04-27T17:23:35.581Z,69.20
2023-04-27T17:25:09.216Z,69.20
2023-04-27T17:26:42.008Z,69.30
2023-04-27T17:28:14.736Z,69.30
2023-04-27T17:29:47.605Z,69.70
2023-04-27T17:31:20.321Z,69.60
2023-04-27T17:32:54.547Z,69.80
2023-04-27T17:34:27.298Z,69.80
2023-04-27T17:36:00.055Z,69.50
2023-04-27T17:37:32.804Z,69.50
2023-04-27T17:39:05.900Z,69.40
2023-04-27T17:40:38.676Z,69.70
2023-04-27T17:42:12.642Z,69.70
2023-04-27T17:43:45.472Z,70.30
2023-04-27T17:45:18.270Z,70.70
2023-04-27T17:46:51.620Z,70.80
2023-04-27T17:48:25.781Z,71.10
2023-04-27T17:49:58.581Z,71.10
2023-04-27T17:51:33.511Z,71.30
2023-04-27T17:53:06.612Z,71.40
2023-04-27T17:54:41.091Z,71.70
2023-04-27T17:56:13.908Z,72.30
2023-04-27T17:57:48.742Z,72.40
2023-04-27T17:59:21.513Z,72.70
2023-04-27T18:00:54.351Z,72.60
2023-04-27T18:02:27.319Z,73.00
2023-04-27T18:04:04.250Z,73.20
2023-04-27T18:05:38.050Z,73.30
2023-04-27T18:07:11.245Z,73.60
2023-04-27T18:08:44.111Z,73.70
2023-04-27T18:10:16.991Z,74.30
2023-04-27T18:11:49.793Z,74.40
2023-04-27T18:13:22.565Z,74.80
2023-04-27T18:14:55.776Z,74.90
2023-04-27T18:16:29.067Z,75.10
2023-04-27T18:18:02.156Z,75.50
2023-04-27T18:19:36.428Z,76.20
2023-04-27T18:21:10.424Z,76.40
2023-04-27T18:22:43.219Z,76.80
2023-04-27T18:24:16.021Z,77.30
2023-04-27T18:25:48.918Z,77.80
2023-04-27T18:27:21.925Z,78.10
2023-04-27T18:28:54.780Z,78.50
2023-04-27T18:30:27.530Z,78.80
2023-04-27T18:32:01.802Z,79.00
2023-04-27T18:33:34.630Z,79.40
2023-04-27T18:35:09.286Z,79.80
2023-04-27T18:36:42.174Z,80.10
2023-04-27T18:38:14.936Z,80.30
2023-04-27T18:39:47.702Z,80.50
2023-04-27T18:41:21.118Z,80.80
2023-04-27T18:42:54.389Z,80.90
2023-04-27T18:44:27.320Z,81.20
2023-04-27T18:46:00.288Z,81.40
2023-04-27T18:47:33.124Z,81.70
2023-04-27T18:49:08.222Z,81.60
2023-04-27T18:50:42.615Z,80.70
2023-04-27T18:52:15.359Z,81.40
2023-04-27T18:53:48.075Z,81.30
2023-04-27T18:55:21.542Z,81.30
2023-04-27T18:56:54.740Z,81.10
2023-04-27T18:58:27.520Z,81.30
2023-04-27T19:00:00.271Z,81.60
2023-04-27T19:01:33.138Z,81.60
2023-04-27T19:03:06.359Z,80.90
2023-04-27T19:04:42.981Z,81.00
2023-04-27T19:06:23.044Z,81.20
2023-04-27T19:07:56.000Z,81.30
2023-04-27T19:09:28.928Z,81.40
2023-04-27T19:11:01.657Z,81.50
2023-04-27T19:12:36.359Z,82.10
2023-04-27T19:14:09.153Z,82.50
2023-04-27T19:15:41.971Z,82.90
2023-04-27T19:17:15.207Z,83.00
2023-04-27T19:18:50.769Z,83.30
2023-04-27T19:20:23.552Z,82.90
2023-04-27T19:22:00.796Z,83.20
2023-04-27T19:23:33.494Z,83.50
2023-04-27T19:25:07.076Z,83.50
2023-04-27T19:26:39.979Z,84.00
2023-04-27T19:28:12.813Z,84.20
2023-04-27T19:29:49.344Z,84.00
2023-04-27T19:31:22.096Z,84.00
2023-04-27T19:32:55.060Z,84.70
2023-04-27T19:34:27.818Z,84.40
2023-04-27T19:36:03.421Z,84.70
2023-04-27T19:37:37.500Z,84.70
2023-04-27T19:39:10.263Z,84.90
2023-04-27T19:40:43.075Z,85.00
2023-04-27T19:42:18.064Z,84.70
2023-04-27T19:43:50.794Z,84.90
2023-04-27T19:45:24.049Z,84.90
2023-04-27T19:46:58.528Z,85.20
2023-04-27T19:48:31.336Z,85.10
2023-04-27T19:50:04.904Z,84.90
2023-04-27T19:51:37.687Z,85.20
2023-04-27T19:53:11.941Z,85.40
2023-04-27T19:54:44.622Z,85.40
2023-04-27T19:56:17.326Z,85.40
2023-04-27T19:57:50.717Z,85.60
2023-04-27T19:59:23.437Z,85.60
2023-04-27T20:00:56.713Z,85.80
2023-04-27T20:02:29.812Z,86.10
2023-04-27T20:04:03.001Z,86.40
2023-04-27T20:05:36.486Z,86.60
2023-04-27T20:07:09.510Z,87.00
2023-04-27T20:08:43.662Z,87.20
2023-04-27T20:10:16.501Z,87.10
2023-04-27T20:11:49.375Z,87.20